CheckWX is a tool to help pilots better visualize weather data.  It is not intended as a substitute for an official pre-flight weather briefing.

07:05:31 UTC

CYYJ TAF
Victoria International Airport
Victoria, Canada
TAF CYYJ 260538Z 2606/2706 VRB03KT P6SM SCT008 OVC030 TEMPO 2606/2616 2SM -DZ BR OVC007 FM261600 VRB03KT P6SM FEW008 SCT015 BKN025 TEMPO 2616/2619 BKN015 OVC030 FM261900 10006KT P6SM FEW020 BKN040 BECMG 2623/2701 19006KT FM270500 16006KT P6SM -RA OVC050 RMK NXT FCST BY 261200Z

Feb-26@
06:00 UTC

Feb-26 @ 06:00 UTC

Feb-26@
16:00 UTC

Feb-26 @ 16:00 UTC

TAF CYYJ 260538Z 2606/2706 VRB03KT P6SM SCT008 OVC030
Wind
  • Variable at 3 KTS
Cloud Levels
  • Scattered at 800' AGL
  • Overcast at 3,000' AGL

Feb-26@
06:00 UTC

Feb-26 @ 06:00 UTC

Feb-26@
16:00 UTC

Feb-26 @ 16:00 UTC

TEMPO 2606/2616 2SM -DZ BR OVC007

Temporary

Temporary Changes expected for less than half the time period

Conditions
Light Drizzle, Mist
Cloud Levels
  • Overcast at 700' AGL

Feb-26@
16:00 UTC

Feb-26 @ 16:00 UTC

Feb-26@
19:00 UTC

Feb-26 @ 19:00 UTC

FM261600 VRB03KT P6SM FEW008 SCT015 BKN025

From

From Standard forecast or significant change

Wind
  • Variable at 3 KTS
Cloud Levels
  • Few at 800' AGL
  • Scattered at 1,500' AGL
  • Broken at 2,500' AGL

Feb-26@
16:00 UTC

Feb-26 @ 16:00 UTC

Feb-26@
19:00 UTC

Feb-26 @ 19:00 UTC

TEMPO 2616/2619 BKN015 OVC030

Temporary

Temporary Changes expected for less than half the time period

Cloud Levels
  • Broken at 1,500' AGL
  • Overcast at 3,000' AGL

Feb-26@
19:00 UTC

Feb-26 @ 19:00 UTC

Feb-26@
23:00 UTC

Feb-26 @ 23:00 UTC

FM261900 10006KT P6SM FEW020 BKN040

From

From Standard forecast or significant change

Wind
  • 100° at 6 KTS
Cloud Levels
  • Few at 2,000' AGL
  • Broken at 4,000' AGL

Feb-26@
23:00 UTC

Feb-26 @ 23:00 UTC

Feb-27@
05:00 UTC

Feb-27 @ 05:00 UTC

BECMG 2623/2701 19006KT

Becoming

Becoming Conditions expected by Thu, Feb 27, 2020 @ 01:00 UTC

Wind
  • 190° at 6 KTS
Cloud Levels
  • Few at 2,000' AGL
  • Broken at 4,000' AGL

Feb-27@
05:00 UTC

Feb-27 @ 05:00 UTC

Feb-27@
06:00 UTC

Feb-27 @ 06:00 UTC

FM270500 16006KT P6SM -RA OVC050 RMK NXT FCST BY 261200Z

From

From Standard forecast or significant change

Wind
  • 160° at 6 KTS
Conditions
Light Rain
Cloud Levels
  • Overcast at 5,000' AGL